Time;durP1;ratioP1;P1;durP2;ratioP2;P2;SDS_P1;SDS_P2;PMS_P1;PMS_P2;Temp;Humidity;BMP_temperature;BMP_pressure;BME280_temperature;BME280_humidity;BME280_pressure;Samples;Min_cycle;Max_cycle;Signal;HPM_P1;HPM_P2
2022/04/21 00:01:09;;;;;;;3.00;1.20;;;;;;;5.90;73.78;100796.77;105162;1273;74992;-72
2022/04/21 00:03:36;;;;;;;3.40;1.50;;;;;;;5.84;74.54;100795.67;105070;1274;72187;-74
2022/04/21 00:06:03;;;;;;;4.80;1.40;;;;;;;5.79;74.72;100794.76;105049;1274;72753;-73
2022/04/21 00:08:30;;;;;;;2.70;1.40;;;;;;;5.74;74.92;100791.56;105262;1274;61239;-72
2022/04/21 00:10:59;;;;;;;2.20;1.50;;;;;;;5.70;75.58;100793.10;105047;1274;61627;-70
2022/04/21 00:13:25;;;;;;;2.20;1.40;;;;;;;5.66;75.56;100791.02;105050;1276;76127;-71
2022/04/21 00:15:52;;;;;;;2.30;1.30;;;;;;;5.63;76.37;100786.58;105164;1274;72111;-70
2022/04/21 00:18:18;;;;;;;3.00;1.80;;;;;;;5.61;76.44;100787.11;105112;1274;61359;-72
2022/04/21 00:20:48;;;;;;;4.10;1.90;;;;;;;5.59;76.69;100787.84;105083;1276;61299;-74
2022/04/21 00:23:26;;;;;;;3.70;1.70;;;;;;;5.56;77.20;100788.28;105020;1276;61330;-71
2022/04/21 00:25:54;;;;;;;2.40;1.60;;;;;;;5.52;77.00;100781.41;105047;1276;75934;-72
2022/04/21 00:28:21;;;;;;;3.80;1.90;;;;;;;5.51;77.47;100783.29;105253;1275;70449;-74
2022/04/21 00:30:48;;;;;;;2.50;1.50;;;;;;;5.48;77.59;100780.91;105054;1274;72996;-72
2022/04/21 00:33:15;;;;;;;2.90;1.40;;;;;;;5.45;77.66;100774.52;105033;1275;61273;-72
2022/04/21 00:35:45;;;;;;;3.60;2.40;;;;;;;5.43;77.41;100772.77;105344;1277;61436;-73
2022/04/21 00:38:11;;;;;;;3.40;2.00;;;;;;;5.41;77.39;100776.48;105099;1276;73920;-72
2022/04/21 00:40:38;;;;;;;3.30;1.70;;;;;;;5.38;77.44;100777.62;105134;1273;61263;-71
2022/04/21 00:43:05;;;;;;;3.30;2.00;;;;;;;5.35;77.35;100779.10;105098;1276;74008;-70
2022/04/21 00:45:33;;;;;;;2.40;1.40;;;;;;;5.32;77.61;100783.95;105100;1274;61471;-72
2022/04/21 00:48:02;;;;;;;3.20;1.90;;;;;;;5.28;77.77;100783.20;105599;1276;61267;-72
2022/04/21 00:50:33;;;;;;;5.40;2.40;;;;;;;5.24;77.76;100782.88;105077;1274;76003;-70
2022/04/21 00:53:01;;;;;;;2.50;1.70;;;;;;;5.20;77.89;100782.86;105006;1274;72572;-70
2022/04/21 00:55:31;;;;;;;5.20;1.90;;;;;;;5.16;77.69;100783.11;105213;1274;72979;-71
2022/04/21 00:58:01;;;;;;;5.00;2.30;;;;;;;5.11;77.98;100779.70;105582;1274;62472;-71
2022/04/21 01:00:27;;;;;;;4.40;2.00;;;;;;;5.05;77.84;100779.52;104943;1276;61335;-72
2022/04/21 01:02:54;;;;;;;4.20;1.80;;;;;;;5.00;77.86;100780.17;105145;1274;74756;-72
2022/04/21 01:05:30;;;;;;;4.50;2.10;;;;;;;4.95;78.18;100771.52;105193;1274;72729;-72
2022/04/21 01:08:08;;;;;;;3.00;1.70;;;;;;;4.90;78.33;100780.52;105140;1276;72941;-71
2022/04/21 01:10:37;;;;;;;3.80;2.10;;;;;;;4.85;78.36;100777.05;105100;1274;62283;-71
2022/04/21 01:13:06;;;;;;;4.10;2.10;;;;;;;4.81;78.71;100779.38;105145;1276;60332;-71
2022/04/21 01:15:38;;;;;;;18.00;3.20;;;;;;;4.77;78.88;100777.44;105237;1276;74713;-73
2022/04/21 01:18:06;;;;;;;4.50;2.50;;;;;;;4.73;79.24;100776.72;105126;1274;71393;-70
2022/04/21 01:20:33;;;;;;;4.40;2.20;;;;;;;4.70;79.31;100773.48;105000;1276;72983;-73
2022/04/21 01:23:00;;;;;;;2.70;2.00;;;;;;;4.66;79.46;100770.31;105215;1276;62833;-71
2022/04/21 01:25:27;;;;;;;3.30;2.00;;;;;;;4.63;79.62;100768.99;104985;1276;61390;-71
2022/04/21 01:27:58;;;;;;;4.30;3.00;;;;;;;4.60;79.79;100766.83;105195;1276;75020;-71
2022/04/21 01:30:25;;;;;;;4.60;2.40;;;;;;;4.57;79.83;100764.48;105122;1275;72894;-73
2022/04/21 01:32:51;;;;;;;4.80;2.80;;;;;;;4.54;79.97;100766.16;105106;1274;74458;-71
2022/04/21 01:35:18;;;;;;;5.00;2.30;;;;;;;4.50;80.12;100765.48;105119;1274;62633;-72
2022/04/21 01:43:15;;;;;;;3.20;2.10;;;;;;;4.40;80.81;100764.86;105130;1274;71481;-73
2022/04/21 01:45:43;;;;;;;3.40;2.10;;;;;;;4.38;80.63;100761.95;105125;1274;72710;-73
2022/04/21 01:48:09;;;;;;;4.60;2.70;;;;;;;4.34;80.66;100756.88;105275;1275;61621;-73
2022/04/21 01:50:36;;;;;;;4.30;2.00;;;;;;;4.29;80.62;100762.31;105265;1276;61222;-71
2022/04/21 01:53:03;;;;;;;3.90;2.10;;;;;;;4.24;80.71;100766.58;105117;1274;74919;-70
2022/04/21 01:55:30;;;;;;;3.60;2.30;;;;;;;4.20;80.77;100762.25;105086;1276;71405;-70
2022/04/21 01:57:56;;;;;;;4.80;2.50;;;;;;;4.16;81.34;100761.73;104970;1276;74074;-72
2022/04/21 02:00:23;;;;;;;3.50;2.20;;;;;;;4.13;81.57;100762.13;105091;1274;61239;-70
2022/04/21 02:02:49;;;;;;;5.90;2.20;;;;;;;4.09;81.47;100762.61;104998;1276;62952;-71
2022/04/21 02:05:16;;;;;;;3.70;2.30;;;;;;;4.05;81.63;100763.86;105302;1274;75721;-72
2022/04/21 02:07:44;;;;;;;3.90;2.60;;;;;;;4.02;81.88;100762.21;104973;1276;71374;-70
2022/04/21 02:10:13;;;;;;;8.10;2.60;;;;;;;3.98;82.02;100761.28;105097;1274;73968;-71
2022/04/21 02:12:41;;;;;;;3.30;2.40;;;;;;;3.96;82.52;100761.52;105147;1273;62613;-70
2022/04/21 02:15:08;;;;;;;3.60;2.20;;;;;;;3.92;82.83;100758.30;105008;1274;61240;-72
2022/04/21 02:17:36;;;;;;;3.60;2.00;;;;;;;3.91;82.90;100755.59;105001;1276;74650;-70
2022/04/21 02:20:08;;;;;;;3.20;2.30;;;;;;;3.89;82.91;100755.11;105138;1274;72887;-70
2022/04/21 02:22:35;;;;;;;2.30;1.70;;;;;;;3.86;83.25;100753.95;105122;1276;74211;-71
2022/04/21 02:25:03;;;;;;;3.10;2.30;;;;;;;3.84;83.12;100753.79;105217;1274;61703;-70
2022/04/21 02:27:31;;;;;;;3.50;2.10;;;;;;;3.82;83.13;100755.02;105138;1274;61696;-72
2022/04/21 02:29:57;;;;;;;3.70;2.20;;;;;;;3.77;83.14;100749.60;104964;1276;75937;-71
2022/04/21 02:32:24;;;;;;;3.80;2.40;;;;;;;3.77;83.16;100750.70;105050;1275;72507;-72
2022/04/21 02:34:53;;;;;;;7.40;2.50;;;;;;;3.75;83.26;100751.21;105088;1273;73826;-72
2022/04/21 02:37:24;;;;;;;3.00;2.10;;;;;;;3.73;83.39;100743.00;105084;1275;62283;-73
2022/04/21 02:39:51;;;;;;;5.50;2.70;;;;;;;3.70;83.10;100737.27;105112;1276;62013;-72
2022/04/21 02:42:21;;;;;;;4.00;2.40;;;;;;;3.67;83.03;100736.45;105212;1274;76106;-71
2022/04/21 02:44:48;;;;;;;4.10;2.20;;;;;;;3.64;83.27;100735.16;105189;1275;72644;-71
2022/04/21 02:47:18;;;;;;;4.30;2.90;;;;;;;3.61;83.34;100736.98;105094;1276;74442;-70
2022/04/21 02:49:48;;;;;;;3.00;1.90;;;;;;;3.58;83.39;100735.15;105060;1275;62275;-71
2022/04/21 02:52:15;;;;;;;3.90;2.20;;;;;;;3.54;83.49;100730.92;105121;1274;61353;-71
2022/04/21 02:57:32;;;;;;;3.70;2.20;;;;;;;3.47;83.70;100728.84;105057;1275;70010;-71
2022/04/21 03:00:01;;;;;;;4.20;2.30;;;;;;;3.45;84.39;100726.27;105177;1276;73025;-73
2022/04/21 03:02:27;;;;;;;4.00;2.90;;;;;;;3.42;84.40;100722.31;105102;1274;61347;-71
2022/04/21 03:04:54;;;;;;;4.70;2.90;;;;;;;3.39;84.21;100719.40;105120;1274;61240;-71
2022/04/21 03:07:22;;;;;;;4.40;2.60;;;;;;;3.36;84.56;100714.27;105060;1276;74036;-70
2022/04/21 03:09:53;;;;;;;4.00;2.40;;;;;;;3.33;84.47;100714.01;105232;1274;72138;-71
2022/04/21 03:12:28;;;;;;;4.40;2.80;;;;;;;3.30;84.88;100712.64;105377;1274;72945;-71
2022/04/21 03:14:55;;;;;;;4.40;2.40;;;;;;;3.28;85.18;100707.22;105280;1275;62462;-72
2022/04/21 03:17:23;;;;;;;5.80;2.30;;;;;;;3.24;85.24;100703.80;105080;1276;63185;-72
2022/04/21 03:19:50;;;;;;;4.10;2.70;;;;;;;3.22;85.75;100699.66;105129;1274;75056;-72
2022/04/21 03:25:03;;;;;;;3.70;2.20;;;;;;;3.20;87.17;100701.22;105065;1274;73047;-72
2022/04/21 03:27:33;;;;;;;4.40;2.00;;;;;;;3.20;87.76;100704.01;105157;1274;62425;-70
2022/04/21 03:30:00;;;;;;;3.70;2.20;;;;;;;3.20;87.87;100705.91;105056;1276;61295;-71
2022/04/21 03:32:29;;;;;;;4.00;2.50;;;;;;;3.19;87.92;100710.03;105144;1276;75130;-72
2022/04/21 03:34:56;;;;;;;3.30;2.10;;;;;;;3.18;87.95;100702.25;105061;1276;72562;-70
2022/04/21 03:37:23;;;;;;;4.00;2.40;;;;;;;3.17;88.29;100706.03;104992;1276;72968;-72
2022/04/21 03:39:51;;;;;;;5.20;2.40;;;;;;;3.15;87.89;100698.86;105142;1274;62552;-72
2022/04/21 03:42:27;;;;;;;6.80;2.50;;;;;;;3.13;87.86;100702.13;105124;1274;61723;-69
2022/04/21 03:44:55;;;;;;;3.40;2.10;;;;;;;3.11;87.92;100703.91;105212;1274;74835;-70
2022/04/21 03:47:21;;;;;;;5.00;2.50;;;;;;;3.08;88.03;100707.65;105158;1274;71402;-71
2022/04/21 03:49:48;;;;;;;4.00;2.60;;;;;;;3.05;88.12;100710.44;104970;1276;73980;-71
2022/04/21 03:52:17;;;;;;;4.60;2.50;;;;;;;3.03;87.96;100710.82;105073;1276;61242;-70
2022/04/21 03:54:44;;;;;;;5.60;2.70;;;;;;;3.01;87.96;100710.44;105159;1274;61184;-71
2022/04/21 03:57:11;;;;;;;3.20;2.20;;;;;;;2.98;87.88;100708.63;105357;1274;75967;-71
2022/04/21 03:59:38;;;;;;;4.40;3.20;;;;;;;2.96;87.87;100709.50;105136;1274;72330;-72
2022/04/21 04:02:14;;;;;;;3.50;2.20;;;;;;;2.95;87.88;100710.30;105069;1274;73290;-70
2022/04/21 04:04:40;;;;;;;3.20;1.80;;;;;;;2.92;87.86;100715.93;105199;1275;62381;-71
2022/04/21 04:12:42;;;;;;;3.80;2.70;;;;;;;2.90;88.58;100716.44;105211;1276;72585;-70
2022/04/21 04:15:12;;;;;;;4.20;2.10;;;;;;;2.93;88.73;100717.06;105312;1274;74272;-70
2022/04/21 04:17:38;;;;;;;4.80;2.20;;;;;;;2.97;88.74;100719.17;105222;1276;61273;-72
2022/04/21 04:20:06;;;;;;;5.40;2.80;;;;;;;3.02;89.05;100716.02;105488;1273;61265;-71
2022/04/21 04:22:41;;;;;;;3.30;1.90;;;;;;;3.07;89.25;100711.69;105165;1276;74985;-71
2022/04/21 04:25:11;;;;;;;4.00;2.60;;;;;;;3.15;89.93;100711.20;105080;1275;72475;-70
2022/04/21 04:27:37;;;;;;;4.50;2.40;;;;;;;3.25;89.79;100707.99;105138;1276;75488;-71
2022/04/21 04:30:07;;;;;;;6.40;2.70;;;;;;;3.34;90.06;100707.39;105090;1276;62790;-71
2022/04/21 04:32:34;;;;;;;3.80;2.30;;;;;;;3.43;89.65;100712.61;105286;1275;61290;-70
2022/04/21 04:35:02;;;;;;;6.60;2.30;;;;;;;3.50;89.16;100718.35;104983;1277;76170;-71
2022/04/21 04:37:29;;;;;;;3.50;1.90;;;;;;;3.55;88.74;100719.65;104978;1276;71302;-71
2022/04/21 04:39:56;;;;;;;4.90;2.20;;;;;;;3.60;88.51;100720.59;105147;1274;61360;-72
2022/04/21 04:42:23;;;;;;;5.00;2.70;;;;;;;3.64;88.32;100720.65;105030;1276;63275;-70
2022/04/21 04:47:37;;;;;;;3.90;2.60;;;;;;;3.63;88.01;100714.41;105084;1276;76107;-73
2022/04/21 04:50:04;;;;;;;2.80;1.80;;;;;;;3.63;87.68;100711.10;105090;1276;71478;-72
2022/04/21 04:52:31;;;;;;;5.60;2.70;;;;;;;3.63;87.89;100715.48;105020;1276;73932;-72
2022/04/21 04:54:58;;;;;;;3.90;2.40;;;;;;;3.63;88.12;100717.39;105097;1276;61457;-71
2022/04/21 04:57:25;;;;;;;5.30;2.70;;;;;;;3.64;87.71;100719.20;105159;1273;61376;-71
2022/04/21 04:59:51;;;;;;;3.80;2.30;;;;;;;3.66;87.90;100723.60;105143;1276;74023;-70
2022/04/21 05:02:20;;;;;;;3.20;1.90;;;;;;;3.69;87.93;100725.13;105094;1276;61223;-73
2022/04/21 05:04:47;;;;;;;5.60;3.00;;;;;;;3.72;87.91;100725.24;105159;1276;73175;-70
2022/04/21 05:07:17;;;;;;;4.80;2.40;;;;;;;3.76;87.92;100722.41;105152;1276;61167;-72
2022/04/21 05:09:43;;;;;;;4.60;2.40;;;;;;;3.81;87.88;100726.73;105085;1273;61685;-72
2022/04/21 05:12:10;;;;;;;3.60;2.00;;;;;;;3.86;87.88;100727.52;105057;1273;61333;-69
2022/04/21 05:14:37;;;;;;;4.70;2.40;;;;;;;3.91;87.52;100729.73;105090;1274;71322;-70
2022/04/21 05:17:04;;;;;;;5.50;2.20;;;;;;;3.98;87.36;100730.01;104990;1274;72667;-72
2022/04/21 05:19:31;;;;;;;5.10;2.60;;;;;;;4.05;87.28;100731.48;105083;1276;61586;-72
2022/04/21 05:22:04;;;;;;;3.70;2.30;;;;;;;4.13;86.71;100731.70;105122;1276;61325;-72
2022/04/21 05:24:31;;;;;;;3.50;2.00;;;;;;;4.21;86.55;100732.42;105048;1276;76018;-72
2022/04/21 05:26:59;;;;;;;4.20;2.30;;;;;;;4.28;86.22;100732.17;105066;1276;71699;-70
2022/04/21 05:32:15;;;;;;;4.00;2.10;;;;;;;4.49;85.26;100737.88;105130;1274;61454;-70
2022/04/21 05:34:42;;;;;;;3.80;2.10;;;;;;;4.59;84.68;100735.05;105240;1276;62099;-71
2022/04/21 05:37:10;;;;;;;3.80;2.50;;;;;;;4.69;84.47;100735.90;105133;1276;75992;-73
2022/04/21 05:39:46;;;;;;;5.80;2.50;;;;;;;4.80;83.86;100737.02;105116;1276;71398;-71
2022/04/21 05:42:22;;;;;;;4.50;2.60;;;;;;;4.92;83.58;100738.45;105063;1276;73038;-70
2022/04/21 05:44:53;;;;;;;4.50;2.90;;;;;;;5.05;83.27;100740.56;105045;1276;62409;-73
2022/04/21 05:47:20;;;;;;;6.70;2.40;;;;;;;5.18;82.76;100741.00;105122;1274;61362;-71
2022/04/21 05:49:47;;;;;;;2.80;2.10;;;;;;;5.30;82.61;100734.48;105137;1276;76018;-71
2022/04/21 05:52:14;;;;;;;3.40;2.30;;;;;;;5.43;82.04;100731.41;104986;1274;72429;-69
2022/04/21 05:54:41;;;;;;;4.90;2.90;;;;;;;5.52;81.31;100730.20;104965;1276;71622;-73
2022/04/21 06:00:49;;;;;;;4.20;2.40;;;;;;;5.66;80.23;100735.16;105018;1276;61289;-72
2022/04/21 06:03:22;;;;;;;4.40;2.50;;;;;;;5.67;79.91;100739.83;105173;1276;74825;-72
2022/04/21 06:05:49;;;;;;;3.60;2.30;;;;;;;5.67;79.68;100750.02;104911;1276;71519;-72
2022/04/21 06:08:15;;;;;;;2.90;2.20;;;;;;;5.68;80.09;100753.28;104890;1276;71950;-71
2022/04/21 06:10:42;;;;;;;4.00;2.30;;;;;;;5.71;79.87;100752.66;105063;1274;61362;-72
2022/04/21 06:13:09;;;;;;;6.70;2.30;;;;;;;5.73;79.95;100748.77;104973;1276;61392;-71
2022/04/21 06:15:36;;;;;;;7.70;2.50;;;;;;;5.75;79.50;100746.52;105231;1276;75973;-73
2022/04/21 06:18:03;;;;;;;3.90;2.40;;;;;;;5.77;79.58;100746.70;104917;1276;72435;-72
2022/04/21 06:20:29;;;;;;;4.60;2.10;;;;;;;5.80;79.43;100745.39;104962;1276;73026;-72
2022/04/21 06:22:56;;;;;;;4.50;2.20;;;;;;;5.84;79.48;100748.34;105074;1275;61115;-72
2022/04/21 06:25:23;;;;;;;4.30;2.40;;;;;;;5.90;78.76;100746.98;105043;1274;61240;-70
2022/04/21 06:27:51;;;;;;;4.40;2.00;;;;;;;5.95;78.02;100746.41;104941;1274;74979;-71
2022/04/21 06:30:19;;;;;;;3.90;1.80;;;;;;;6.01;77.63;100740.41;104919;1276;71338;-72
2022/04/21 06:32:46;;;;;;;3.30;1.70;;;;;;;6.09;77.49;100736.88;105055;1275;74248;-70
2022/04/21 06:35:13;;;;;;;3.60;2.70;;;;;;;6.16;76.89;100738.55;105022;1276;61135;-72
2022/04/21 06:37:42;;;;;;;3.90;2.50;;;;;;;6.18;76.40;100734.83;104946;1276;61472;-71
2022/04/21 06:40:08;;;;;;;3.80;2.30;;;;;;;6.24;76.63;100736.16;104908;1278;76031;-70
2022/04/21 06:42:38;;;;;;;4.70;2.40;;;;;;;6.32;76.63;100735.55;105100;1276;72118;-71
2022/04/21 06:48:02;;;;;;;6.30;2.80;;;;;;;6.41;75.59;100741.09;105061;1276;62624;-71
2022/04/21 06:50:30;;;;;;;4.10;2.30;;;;;;;6.47;75.52;100746.42;105191;1275;61979;-72
2022/04/21 06:52:56;;;;;;;2.90;2.10;;;;;;;6.55;75.41;100751.48;105015;1274;76017;-70
2022/04/21 06:55:23;;;;;;;;;;;;;;;6.64;75.55;100753.92;105287;1274;71358;-69
2022/04/21 06:57:49;;;;;;;;;;;;;;;6.76;75.73;100749.96;105178;1274;61374;-69
2022/04/21 07:00:16;;;;;;;;;;;;;;;6.89;75.23;100748.16;105031;1274;63274;-71
2022/04/21 07:02:42;;;;;;;;;;;;;;;7.01;74.76;100752.66;105003;1274;61258;-73
2022/04/21 07:05:11;;;;;;;;;;;;;;;7.10;73.86;100746.66;104941;1276;74893;-72
2022/04/21 07:07:39;;;;;;;;;;;;;;;7.17;73.74;100748.85;105017;1276;71377;-72
2022/04/21 07:10:13;;;;;;;;;;;;;;;7.23;73.28;100754.21;105097;1274;72911;-71
2022/04/21 07:12:39;;;;;;;;;;;;;;;7.24;72.64;100756.73;104916;1276;62631;-72
2022/04/21 07:15:07;;;;;;;;;;;;;;;7.23;72.13;100758.11;104952;1274;61337;-71
2022/04/21 07:17:34;;;;;;;;;;;;;;;7.22;72.74;100760.61;105190;1274;75919;-71
2022/04/21 07:20:03;;;;;;;;;;;;;;;7.29;72.73;100769.98;104965;1276;72698;-71
2022/04/21 07:22:29;;;;;;;;;;;;;;;7.38;72.76;100764.83;105063;1276;75177;-68
2022/04/21 07:24:56;;;;;;;;;;;;;;;7.47;72.02;100766.80;104942;1276;61221;-71
2022/04/21 07:27:24;;;;;;;;;;;;;;;7.50;71.52;100763.81;105153;1276;61735;-70
2022/04/21 07:29:51;;;;;;;;;;;;;;;7.59;71.89;100759.98;105129;1276;75166;-71
2022/04/21 07:32:18;;;;;;;;;;;;;;;7.72;71.38;100764.98;104934;1275;71539;-71
2022/04/21 07:34:52;;;;;;;;;;;;;;;7.82;71.14;100767.30;104830;1276;73118;-71
2022/04/21 07:37:19;;;;;;;;;;;;;;;7.95;71.23;100765.67;104984;1276;61416;-70
2022/04/21 07:39:46;;;;;;;;;;;;;;;8.11;70.60;100771.56;105006;1276;62479;-72
2022/04/21 07:42:13;;;;;;;;;;;;;;;8.20;69.36;100770.33;104976;1276;73671;-71
2022/04/21 07:44:40;;;;;;;;;;;;;;;8.24;69.34;100769.06;105257;1274;71044;-70
2022/04/21 07:47:07;;;;;;;;;;;;;;;8.26;68.83;100767.61;105304;1274;61269;-70
2022/04/21 07:49:45;;;;;;;;;;;;;;;8.35;69.51;100766.67;105164;1276;62609;-71
2022/04/21 07:55:08;;;;;;;;;;;;;;;8.72;68.76;100765.80;105000;1276;76059;-73
2022/04/21 07:57:35;;;;;;;;;;;;;;;8.91;68.10;100764.36;104963;1276;71358;-71
2022/04/21 08:00:03;;;;;;;;;;;;;;;9.04;67.68;100763.93;104933;1276;61292;-72
2022/04/21 08:02:29;;;;;;;;;;;;;;;9.15;66.94;100759.14;104882;1276;62720;-69
2022/04/21 08:04:56;;;;;;;;;;;;;;;9.22;66.58;100757.42;104948;1276;61186;-71
2022/04/21 08:07:23;;;;;;;;;;;;;;;9.26;66.55;100754.66;104904;1277;75465;-71
2022/04/21 08:09:50;;;;;;;;;;;;;;;9.31;66.68;100760.41;104981;1276;71490;-73
2022/04/21 08:12:16;;;;;;;;;;;;;;;9.41;66.38;100764.67;104872;1276;61117;-71
2022/04/21 08:14:43;;;;;;;;;;;;;;;9.60;65.90;100760.00;105183;1276;61260;-71
2022/04/21 08:17:10;;;;;;;;;;;;;;;9.78;65.15;100755.06;104951;1274;61785;-71
2022/04/21 08:19:36;;;;;;;;;;;;;;;10.08;64.98;100753.48;105008;1276;61243;-72
2022/04/21 08:22:03;;;;;;;;;;;;;;;10.34;64.24;100751.34;105048;1274;61279;-73
2022/04/21 08:33:16;;;;;;;;;;;;;;;11.12;60.92;100745.21;104963;1276;74095;-71
2022/04/21 08:35:44;;;;;;;;;;;;;;;11.21;61.34;100750.65;105047;1274;72471;-72
2022/04/21 08:38:11;;;;;;;;;;;;;;;11.27;60.79;100748.90;104885;1276;73114;-71
2022/04/21 08:40:38;;;;;;;;;;;;;;;11.23;59.84;100750.96;104997;1276;61190;-69
2022/04/21 08:43:15;;;;;;;;;;;;;;;11.30;60.74;100751.41;105018;1276;61375;-72
2022/04/21 08:45:43;;;;;;;;;;;;;;;11.38;60.56;100747.66;104990;1276;75250;-71
2022/04/21 08:48:14;;;;;;;;;;;;;;;11.35;59.54;100744.14;105126;1274;71726;-70
2022/04/21 08:50:40;;;;;;;;;;;;;;;11.29;60.11;100739.25;104954;1276;72926;-72
2022/04/21 08:53:10;;;;;;;;;;;;;;;11.27;60.39;100740.11;105058;1275;62516;-72
2022/04/21 08:55:37;;;;;;;;;;;;;;;11.26;60.08;100742.50;104972;1275;61407;-72
2022/04/21 08:58:04;;;;;;;;;;;;;;;11.23;60.14;100739.56;105053;1274;61298;-73
2022/04/21 09:00:31;;;;;;;;;;;;;;;11.26;60.10;100743.33;105030;1276;72424;-71
2022/04/21 09:02:58;;;;;;;;;;;;;;;11.39;60.54;100740.93;104924;1275;74158;-71
2022/04/21 09:05:29;;;;;;;;;;;;;;;11.57;60.14;100744.41;105139;1276;61301;-72
2022/04/21 09:07:57;;;;;;;;;;;;;;;11.78;59.96;100741.38;105076;1274;61258;-70
2022/04/21 09:10:44;;;;;;;;;;;;;;;11.97;58.61;100740.51;105048;1276;77866;-73
2022/04/21 09:13:10;;;;;;;;;;;;;;;12.14;58.03;100739.88;104941;1275;61206;-73
2022/04/21 09:15:37;;;;;;;;;;;;;;;12.31;58.05;100742.15;105109;1276;61355;-72
2022/04/21 09:18:10;;;;;;;;;;;;;;;12.38;56.31;100741.13;105038;1276;61253;-71
2022/04/21 09:20:39;;;;;;;;;;;;;;;12.64;56.60;100736.23;104973;1275;61718;-71
2022/04/21 09:23:07;;;;;;;;;;;;;;;12.75;54.71;100740.54;105087;1276;76336;-71
2022/04/21 09:25:42;;;;;;;;;;;;;;;12.64;55.17;100740.96;105016;1276;72465;-71
2022/04/21 09:28:20;;;;;;;;;;;;;;;12.56;54.94;100741.77;105036;1274;73964;-72
2022/04/21 09:30:47;;;;;;;;;;;;;;;12.44;55.32;100740.59;104963;1276;61298;-72
2022/04/21 09:33:25;;;;;;;;;;;;;;;12.47;55.98;100739.35;104962;1275;61251;-71
2022/04/21 09:35:52;;;;;;;;;;;;;;;12.68;56.34;100737.19;105008;1274;74823;-70
2022/04/21 09:38:19;;;;;;;;;;;;;;;12.90;55.58;100733.36;104993;1276;74976;-72
2022/04/21 09:40:46;;;;;;;;;;;;;;;13.15;54.93;100730.16;104752;1275;329932;-72
2022/04/21 09:43:12;;;;;;;;;;;;;;;13.44;54.87;100726.14;105039;1274;61387;-71
2022/04/21 09:48:28;;;;;;;;;;;;;;;14.13;52.63;100726.80;105011;1274;75958;-71
2022/04/21 09:51:06;;;;;;;;;;;;;;;14.20;51.11;100726.88;104945;1276;72394;-69
2022/04/21 09:53:44;;;;;;;;;;;;;;;14.09;51.41;100725.17;104890;1277;74127;-72
2022/04/21 09:56:10;;;;;;;;;;;;;;;14.21;52.41;100728.85;105145;1274;61252;-73
2022/04/21 09:58:45;;;;;;;;;;;;;;;14.36;52.18;100729.07;104983;1276;61187;-71
2022/04/21 10:01:12;;;;;;;;;;;;;;;14.48;51.88;100722.84;104986;1275;74742;-71
2022/04/21 10:03:41;;;;;;;;;;;;;;;14.58;51.61;100719.65;104897;1275;72381;-71
2022/04/21 10:06:08;;;;;;;;;;;;;;;14.67;50.75;100717.75;105020;1277;73493;-72
2022/04/21 10:08:37;;;;;;;;;;;;;;;14.71;50.68;100717.65;104812;1275;61276;-72
2022/04/21 10:11:05;;;;;;;;;;;;;;;14.81;50.94;100721.11;105035;1276;61494;-71
2022/04/21 10:13:31;;;;;;;;;;;;;;;14.94;50.74;100720.20;104987;1275;75964;-69
2022/04/21 10:15:58;;;;;;;;;;;;;;;15.17;50.42;100717.42;104950;1276;72932;-71
2022/04/21 10:18:25;;;;;;;;;;;;;;;15.44;50.27;100718.25;105306;1275;72970;-71
2022/04/21 10:20:52;;;;;;;;;;;;;;;15.68;49.67;100714.88;104917;1277;61272;-71
2022/04/21 10:23:19;;;;;;;;;;;;;;;15.80;48.48;100711.66;105113;1277;61160;-72
2022/04/21 10:25:45;;;;;;;;;;;;;;;15.89;48.25;100709.46;104953;1274;74943;-71
2022/04/21 10:28:31;;;;;;;;;;;;;;;15.90;48.30;100708.14;104878;1277;61272;-72
2022/04/21 10:30:58;;;;;;;;;;;;;;;15.87;48.25;100707.12;104905;1276;73964;-71
2022/04/21 10:33:44;;;;;;;;;;;;;;;15.84;48.83;100712.30;104928;1277;61678;-72
2022/04/21 10:36:30;;;;;;;;;;;;;;;15.85;49.37;100709.47;104915;1276;61192;-72
2022/04/21 10:39:10;;;;;;;;;;;;;;;15.85;48.55;100708.93;105146;1275;76156;-72
2022/04/21 10:41:38;;;;;;;;;;;;;;;15.85;48.75;100704.09;104902;1277;72871;-72
2022/04/21 10:44:12;;;;;;;;;;;;;;;15.90;48.89;100707.66;105008;1275;71783;-72
2022/04/21 10:46:39;;;;;;;;;;;;;;;15.92;48.63;100709.13;104869;1277;62952;-72
2022/04/21 10:49:44;;;;;;;;;;;;;;;15.91;48.89;100706.89;105007;1277;61280;-72
2022/04/21 10:57:29;;;;;;;;;;;;;;;15.96;48.28;100703.93;104978;1274;73071;-69
2022/04/21 11:00:03;;;;;;;;;;;;;;;15.91;47.71;100708.45;104918;1277;61348;-69
2022/04/21 11:02:40;;;;;;;;;;;;;;;15.80;48.05;100706.48;105044;1274;61167;-71
2022/04/21 11:05:22;;;;;;;;;;;;;;;15.61;48.21;100704.79;104912;1278;74666;-70
2022/04/21 11:07:58;;;;;;;;;;;;;;;15.41;48.49;100704.20;104933;1277;71490;-73
2022/04/21 11:10:25;;;;;;;;;;;;;;;15.18;49.45;100700.08;104918;1277;72946;-73
2022/04/21 11:12:52;;;;;;;;;;;;;;;15.04;50.13;100695.92;104896;1277;61918;-72
2022/04/21 11:15:33;;;;;;;;;;;;;;;14.91;50.14;100701.95;104883;1276;61321;-72
2022/04/21 11:18:00;;;;;;;;;;;;;;;14.75;51.10;100700.69;105004;1274;75713;-72
2022/04/21 11:20:27;;;;;;;;;;;;;;;14.68;51.85;100700.39;105015;1274;72413;-72
2022/04/21 11:22:53;;;;;;;;;;;;;;;14.62;51.80;100696.80;105032;1277;73671;-70
2022/04/21 11:25:20;;;;;;;4.10;1.90;;;;;;;14.61;52.39;100695.14;104853;1276;61440;-72
2022/04/21 11:27:48;;;;;;;5.30;2.60;;;;;;;14.60;52.34;100688.95;105015;1275;61313;-73
2022/04/21 11:30:15;;;;;;;4.30;1.80;;;;;;;14.57;52.21;100689.52;104906;1274;76013;-71
2022/04/21 11:32:52;;;;;;;5.20;2.40;;;;;;;14.49;52.24;100687.44;104893;1276;71657;-73
2022/04/21 11:35:25;;;;;;;3.70;1.90;;;;;;;14.41;52.60;100677.91;104815;1275;74155;-71
2022/04/21 11:37:54;;;;;;;2.70;1.50;;;;;;;14.37;53.39;100678.27;105020;1274;61411;-72
2022/04/21 11:40:23;;;;;;;4.20;2.20;;;;;;;14.29;53.24;100679.20;104867;1275;61241;-74
2022/04/21 11:42:52;;;;;;;3.30;2.00;;;;;;;14.21;53.54;100678.31;105046;1274;74007;-70
2022/04/21 11:45:23;;;;;;;4.30;1.60;;;;;;;14.13;53.90;100676.36;104851;1276;72617;-71
2022/04/21 11:47:51;;;;;;;5.00;2.60;;;;;;;14.04;54.14;100678.20;104783;1277;73376;-71
2022/04/21 11:50:19;;;;;;;3.20;1.70;;;;;;;13.95;54.96;100677.57;104998;1275;61281;-71
2022/04/21 11:52:47;;;;;;;5.10;2.30;;;;;;;13.86;55.39;100674.21;105241;1275;61298;-71
2022/04/21 11:55:16;;;;;;;6.20;2.10;;;;;;;13.82;55.25;100671.74;104978;1277;74937;-71
2022/04/21 11:57:43;;;;;;;5.20;2.00;;;;;;;13.82;55.51;100672.23;104909;1277;71233;-70
2022/04/21 12:00:12;;;;;;;3.80;1.70;;;;;;;13.88;55.61;100670.90;104924;1274;73990;-72
2022/04/21 12:08:13;;;;;;;6.60;2.50;;;;;;;13.90;55.63;100659.74;105119;1274;74972;-70
2022/04/21 12:10:41;;;;;;;5.40;2.50;;;;;;;13.94;55.32;100661.27;104870;1274;71566;-72
2022/04/21 12:13:08;;;;;;;5.10;2.10;;;;;;;13.97;55.42;100661.02;104939;1276;73987;-72
2022/04/21 12:15:38;;;;;;;7.50;2.90;;;;;;;13.99;55.26;100661.23;105055;1274;62029;-72
2022/04/21 12:18:05;;;;;;;4.30;1.80;;;;;;;14.01;55.45;100656.64;105058;1277;61865;-69
2022/04/21 12:20:31;;;;;;;4.80;2.80;;;;;;;14.02;55.20;100656.80;105104;1275;76126;-71
2022/04/21 12:22:58;;;;;;;7.00;2.60;;;;;;;14.07;55.44;100655.57;105223;1274;72364;-72
2022/04/21 12:25:30;;;;;;;3.20;1.90;;;;;;;14.09;54.97;100655.54;104978;1277;73387;-72
2022/04/21 12:28:07;;;;;;;4.60;3.20;;;;;;;14.11;54.87;100652.42;104992;1277;62871;-72
2022/04/21 12:30:39;;;;;;;4.80;2.10;;;;;;;14.16;55.08;100652.07;104940;1277;61148;-70
2022/04/21 12:33:06;;;;;;;3.60;2.40;;;;;;;14.20;55.35;100656.23;105022;1274;75875;-70
2022/04/21 12:35:46;;;;;;;4.60;2.50;;;;;;;14.24;55.38;100652.27;105344;1277;71391;-72
2022/04/21 12:40:59;;;;;;;3.00;2.40;;;;;;;14.22;54.60;100650.95;104931;1277;61272;-70
2022/04/21 12:43:31;;;;;;;3.80;2.20;;;;;;;14.19;55.21;100646.01;105058;1277;61332;-72
2022/04/21 12:45:58;;;;;;;4.70;2.30;;;;;;;14.19;55.44;100647.15;105122;1277;75073;-71
2022/04/21 12:48:26;;;;;;;6.10;2.40;;;;;;;14.18;55.90;100642.34;104925;1276;72384;-71
2022/04/21 12:50:54;;;;;;;5.20;2.10;;;;;;;14.18;55.49;100642.06;105033;1277;73969;-72